Time;durP1;ratioP1;P1;durP2;ratioP2;P2;SDS_P1;SDS_P2;PMS_P1;PMS_P2;Temp;Humidity;BMP_temperature;BMP_pressure;BME280_temperature;BME280_humidity;BME280_pressure;Samples;Min_cycle;Max_cycle;Signal;HPM_P1;HPM_P2
2023/08/29 00:00:18;;;;;;;9.38;8.43;;;;;;;12.60;100.00;101083.00;4988576;28;20030;-68
2023/08/29 00:02:44;;;;;;;9.18;8.32;;;;;;;12.59;100.00;101086.44;4988633;28;20053;-69
2023/08/29 00:05:09;;;;;;;8.93;8.02;;;;;;;12.57;100.00;101082.91;4984248;28;20046;-69
2023/08/29 00:07:36;;;;;;;8.85;7.85;;;;;;;12.57;100.00;101077.72;4968280;28;21894;-69
2023/08/29 00:10:01;;;;;;;9.25;8.35;;;;;;;12.55;100.00;101079.38;4968916;28;20427;-69
2023/08/29 00:12:27;;;;;;;7.90;7.25;;;;;;;12.56;100.00;101075.94;4969020;28;20027;-69
2023/08/29 00:14:52;;;;;;;7.40;6.80;;;;;;;12.55;100.00;101074.19;4973933;28;20456;-68
2023/08/29 00:17:17;;;;;;;7.63;6.95;;;;;;;12.54;100.00;101069.84;4988672;28;20034;-68
2023/08/29 00:19:43;;;;;;;7.13;6.43;;;;;;;12.53;100.00;101065.47;4992992;28;20097;-69
2023/08/29 00:22:08;;;;;;;7.43;6.82;;;;;;;12.51;100.00;101062.81;4996805;28;20190;-69
2023/08/29 00:24:33;;;;;;;8.25;7.35;;;;;;;12.52;100.00;101061.97;4987919;28;20076;-69
2023/08/29 00:26:58;;;;;;;7.28;6.68;;;;;;;12.47;100.00;101056.66;4977318;28;20027;-69
2023/08/29 00:29:26;;;;;;;7.70;7.00;;;;;;;12.44;100.00;101054.00;4968183;28;20344;-69
2023/08/29 00:31:51;;;;;;;7.50;6.82;;;;;;;12.42;100.00;101053.06;4983043;28;20145;-69
2023/08/29 00:34:16;;;;;;;8.02;7.25;;;;;;;12.41;100.00;101050.44;4988309;28;20109;-69
2023/08/29 00:36:41;;;;;;;7.78;7.15;;;;;;;12.39;100.00;101047.78;4974705;28;20038;-67
2023/08/29 00:39:07;;;;;;;8.45;7.50;;;;;;;12.37;100.00;101062.44;4988219;28;20085;-69
2023/08/29 00:41:32;;;;;;;8.07;7.47;;;;;;;12.32;100.00;101056.25;4987960;28;20037;-69
2023/08/29 00:43:57;;;;;;;11.88;7.35;;;;;;;12.30;100.00;101060.50;4987546;28;20489;-69
2023/08/29 00:46:25;;;;;;;8.20;7.35;;;;;;;12.27;100.00;101050.91;4987926;28;20026;-69
2023/08/29 00:48:50;;;;;;;7.22;6.53;;;;;;;12.24;100.00;101054.31;4987806;28;20058;-69
2023/08/29 00:51:17;;;;;;;7.60;6.95;;;;;;;12.20;100.00;101049.84;4987660;28;20050;-69
2023/08/29 00:53:43;;;;;;;7.22;6.60;;;;;;;12.16;100.00;101050.59;4987896;28;20030;-69
2023/08/29 00:56:09;;;;;;;11.18;6.80;;;;;;;12.13;100.00;101045.31;4987090;28;20029;-70
2023/08/29 00:58:35;;;;;;;7.80;7.10;;;;;;;12.10;100.00;101050.44;4996230;28;20405;-69
2023/08/29 01:01:01;;;;;;;8.63;7.18;;;;;;;12.09;100.00;101053.81;4990327;28;21413;-68
2023/08/29 01:03:26;;;;;;;8.13;7.43;;;;;;;12.06;100.00;101054.63;4987626;28;20030;-69
2023/08/29 01:05:51;;;;;;;7.95;7.25;;;;;;;12.06;100.00;101051.13;4977140;28;20053;-69
2023/08/29 01:08:17;;;;;;;7.95;7.05;;;;;;;12.04;100.00;101047.59;4968141;28;20031;-69
2023/08/29 01:11:01;;;;;;;7.90;7.10;;;;;;;12.01;100.00;101046.69;4968728;28;20355;-68
2023/08/29 01:13:41;;;;;;;7.82;6.95;;;;;;;11.98;100.00;101044.00;4970398;28;20033;-69
2023/08/29 01:16:10;;;;;;;7.90;6.90;;;;;;;11.97;100.00;101043.94;4974156;28;20403;-69
2023/08/29 01:18:38;;;;;;;8.20;7.40;;;;;;;11.94;100.00;101049.94;4969229;28;20034;-69
2023/08/29 01:21:35;;;;;;;8.55;6.82;;;;;;;11.91;100.00;101041.19;4969576;28;20043;-69
2023/08/29 01:24:29;;;;;;;7.43;6.72;;;;;;;11.89;100.00;101035.97;4968750;28;20045;-67
2023/08/29 01:26:56;;;;;;;8.88;6.70;;;;;;;11.87;100.00;101046.28;4982084;28;20034;-69
2023/08/29 01:29:21;;;;;;;7.50;6.90;;;;;;;11.84;100.00;101043.59;4983767;28;20097;-69
2023/08/29 01:31:48;;;;;;;8.02;7.22;;;;;;;11.85;100.00;101055.75;4988282;28;20114;-69
2023/08/29 01:34:14;;;;;;;11.20;7.57;;;;;;;11.84;100.00;101053.09;4988428;28;20281;-69
2023/08/29 01:36:41;;;;;;;7.93;7.15;;;;;;;11.82;100.00;101050.44;4974802;28;20026;-69
2023/08/29 01:39:07;;;;;;;7.68;6.97;;;;;;;11.82;100.00;101045.25;4988830;28;20080;-69
2023/08/29 01:41:32;;;;;;;7.65;6.80;;;;;;;11.84;100.00;101048.78;4977977;28;20030;-69
2023/08/29 01:43:58;;;;;;;6.93;6.32;;;;;;;11.83;100.00;101051.34;4988808;28;20022;-69
2023/08/29 01:46:23;;;;;;;9.05;6.88;;;;;;;11.82;100.00;101050.44;4991822;28;20030;-69
2023/08/29 01:48:49;;;;;;;7.20;6.60;;;;;;;11.78;100.00;101053.81;4991161;28;20021;-70
2023/08/29 01:51:14;;;;;;;7.47;6.60;;;;;;;11.75;100.00;101057.16;4991505;28;20080;-69
2023/08/29 01:53:40;;;;;;;7.55;6.82;;;;;;;11.73;100.00;101056.25;4991081;28;20133;-69
2023/08/29 01:56:08;;;;;;;7.55;6.45;;;;;;;11.72;100.00;101058.78;4991504;28;20077;-69
2023/08/29 01:58:35;;;;;;;8.68;7.78;;;;;;;11.72;100.00;101061.38;4990525;28;20022;-69
2023/08/29 02:01:02;;;;;;;7.75;6.82;;;;;;;11.69;100.00;101063.91;4990944;28;20018;-69
2023/08/29 02:03:27;;;;;;;7.68;6.97;;;;;;;11.65;100.00;101062.91;4991340;28;20429;-69
2023/08/29 02:05:53;;;;;;;7.75;6.97;;;;;;;11.62;100.00;101063.69;4974468;28;20025;-69
2023/08/29 02:08:18;;;;;;;8.00;7.30;;;;;;;11.59;100.00;101062.72;4971470;28;20431;-69
2023/08/29 02:10:43;;;;;;;8.65;7.72;;;;;;;11.56;100.00;101070.41;4985152;28;20037;-69
2023/08/29 02:13:09;;;;;;;8.48;7.53;;;;;;;11.55;100.00;101066.06;4971932;28;20048;-68
2023/08/29 02:15:35;;;;;;;10.15;7.80;;;;;;;11.51;100.00;101071.13;4972346;28;20031;-67
2023/08/29 02:18:00;;;;;;;9.13;8.32;;;;;;;11.49;100.00;101070.22;4972017;28;20023;-69
2023/08/29 02:20:25;;;;;;;9.13;8.13;;;;;;;11.47;100.00;101076.19;4972884;28;20474;-69
2023/08/29 02:22:51;;;;;;;7.85;7.03;;;;;;;11.44;100.00;101069.19;4972491;28;20034;-69
2023/08/29 02:25:16;;;;;;;7.82;7.13;;;;;;;11.39;100.00;101079.41;4972235;28;20128;-67
2023/08/29 02:27:41;;;;;;;9.60;8.25;;;;;;;11.38;100.00;101077.66;4972340;28;20498;-69
2023/08/29 02:30:07;;;;;;;8.73;7.50;;;;;;;11.36;100.00;101076.72;4971689;28;20038;-69
2023/08/29 02:32:34;;;;;;;9.90;8.25;;;;;;;11.34;100.00;101077.50;4971943;28;20034;-68
2023/08/29 02:35:00;;;;;;;9.07;8.27;;;;;;;11.34;100.00;101083.56;4986044;28;20105;-69
2023/08/29 02:37:25;;;;;;;8.25;7.47;;;;;;;11.33;100.00;101094.81;4998446;28;20120;-68
2023/08/29 02:39:50;;;;;;;9.45;7.15;;;;;;;11.29;100.00;101101.59;4993595;28;20061;-69
2023/08/29 02:42:15;;;;;;;9.40;8.50;;;;;;;11.31;100.00;101103.34;4989760;28;20030;-66
2023/08/29 02:44:41;;;;;;;8.45;7.65;;;;;;;11.31;100.00;101103.34;4989713;28;20504;-69
2023/08/29 02:47:06;;;;;;;8.32;7.30;;;;;;;11.32;100.00;101105.09;4989530;28;20057;-69
2023/08/29 02:49:32;;;;;;;8.52;7.72;;;;;;;11.32;100.00;101106.00;4988310;28;20069;-69
2023/08/29 02:51:57;;;;;;;8.57;7.72;;;;;;;11.32;100.00;101102.50;4979006;28;20030;-69
2023/08/29 02:54:22;;;;;;;7.55;6.95;;;;;;;11.31;100.00;101098.16;4992235;28;20381;-69
2023/08/29 02:56:47;;;;;;;7.95;7.10;;;;;;;11.32;100.00;101099.91;4989464;28;20022;-69
2023/08/29 02:59:13;;;;;;;9.05;7.13;;;;;;;11.28;100.00;101097.22;4987911;28;20475;-68
2023/08/29 03:01:38;;;;;;;8.57;7.60;;;;;;;11.29;100.00;101101.59;4988972;28;20070;-69
2023/08/29 03:04:03;;;;;;;10.30;8.10;;;;;;;11.27;100.00;101105.84;4987109;28;20036;-69
2023/08/29 03:06:29;;;;;;;8.50;7.70;;;;;;;11.25;100.00;101115.28;4989001;28;20497;-69
2023/08/29 03:08:54;;;;;;;8.45;7.65;;;;;;;11.24;100.00;101108.31;4988249;28;20058;-69
2023/08/29 03:11:19;;;;;;;9.38;8.48;;;;;;;11.23;100.00;101103.97;4988788;28;20056;-69
2023/08/29 03:13:45;;;;;;;8.55;7.80;;;;;;;11.20;100.00;101096.09;4988421;28;20026;-69
2023/08/29 03:16:11;;;;;;;8.85;7.95;;;;;;;11.18;100.00;101097.75;4989252;28;20027;-69
2023/08/29 03:18:36;;;;;;;8.55;7.32;;;;;;;11.17;100.00;101106.38;4988700;28;20100;-69
2023/08/29 03:21:05;;;;;;;9.23;8.07;;;;;;;11.17;100.00;101101.19;4989043;28;20034;-65
2023/08/29 03:23:30;;;;;;;8.73;7.82;;;;;;;11.15;100.00;101100.25;5000805;28;20484;-69
2023/08/29 03:26:06;;;;;;;8.43;7.68;;;;;;;11.15;100.00;101098.53;4971674;28;20050;-68
2023/08/29 03:28:32;;;;;;;8.98;7.55;;;;;;;11.14;100.00;101106.25;4988211;28;20026;-69
2023/08/29 03:31:07;;;;;;;8.60;7.80;;;;;;;11.13;100.00;101095.03;4982027;28;20049;-69
2023/08/29 03:33:32;;;;;;;8.32;7.63;;;;;;;11.14;100.00;101098.47;4985418;28;20022;-68
2023/08/29 03:35:58;;;;;;;10.35;7.05;;;;;;;11.11;100.00;101085.41;4989808;28;20035;-68
2023/08/29 03:38:23;;;;;;;8.20;7.40;;;;;;;11.10;100.00;101084.50;4973681;28;20019;-68
2023/08/29 03:40:58;;;;;;;8.57;7.78;;;;;;;11.07;100.00;101078.34;4970510;28;20023;-69
2023/08/29 03:43:30;;;;;;;8.10;7.40;;;;;;;11.05;100.00;101076.59;4971497;28;20467;-68
2023/08/29 03:46:00;;;;;;;7.85;7.07;;;;;;;11.05;100.00;101071.41;4970266;28;20063;-69
2023/08/29 03:48:26;;;;;;;9.82;8.30;;;;;;;11.02;100.00;101055.75;4971160;28;20038;-69
2023/08/29 03:50:52;;;;;;;8.25;7.40;;;;;;;11.02;100.00;101049.69;4970324;28;20027;-68
2023/08/29 03:53:17;;;;;;;9.38;7.18;;;;;;;11.01;100.00;101043.59;4970845;28;20397;-68
2023/08/29 03:55:42;;;;;;;8.55;7.68;;;;;;;10.98;100.00;101038.31;4970569;28;20030;-66
2023/08/29 03:58:08;;;;;;;8.65;7.95;;;;;;;10.97;100.00;101052.13;4970791;28;20023;-69
2023/08/29 04:00:34;;;;;;;10.15;8.20;;;;;;;10.94;100.00;101057.19;4970518;28;20038;-69
2023/08/29 04:03:00;;;;;;;8.88;7.97;;;;;;;10.93;100.00;101050.25;4969195;28;20029;-68
2023/08/29 04:05:25;;;;;;;8.48;7.63;;;;;;;10.92;100.00;101048.47;4970548;28;20026;-69
2023/08/29 04:07:51;;;;;;;8.48;7.57;;;;;;;10.90;100.00;101045.81;4971152;28;20236;-69
2023/08/29 04:10:16;;;;;;;9.02;8.00;;;;;;;10.88;100.00;101042.28;4983093;28;20030;-67
2023/08/29 04:12:41;;;;;;;8.30;7.28;;;;;;;10.87;100.00;101040.53;4970500;28;20026;-69
2023/08/29 04:15:07;;;;;;;9.05;8.13;;;;;;;10.87;100.00;101039.66;4970342;28;20054;-68
2023/08/29 04:17:32;;;;;;;9.05;8.18;;;;;;;10.87;100.00;101035.38;4970584;28;20026;-66
2023/08/29 04:19:58;;;;;;;8.38;7.55;;;;;;;10.85;100.00;101030.97;4970493;28;20027;-69
2023/08/29 04:22:23;;;;;;;9.10;7.55;;;;;;;10.83;100.00;101022.25;4970344;28;20022;-69
2023/08/29 04:24:49;;;;;;;8.68;7.65;;;;;;;10.81;100.00;101041.22;4970244;28;20379;-69
2023/08/29 04:27:15;;;;;;;9.63;8.73;;;;;;;10.79;100.00;101032.50;4971378;28;20606;-69
2023/08/29 04:29:42;;;;;;;10.05;8.90;;;;;;;10.79;100.00;101029.91;4988035;28;20430;-69
2023/08/29 04:32:07;;;;;;;8.98;7.97;;;;;;;10.79;100.00;101024.72;4982697;28;20471;-68
2023/08/29 04:34:32;;;;;;;10.63;8.80;;;;;;;10.80;100.00;101029.09;4980877;28;20054;-69
2023/08/29 04:36:57;;;;;;;8.82;7.95;;;;;;;10.83;100.00;101033.47;4983791;28;20423;-69
2023/08/29 04:39:23;;;;;;;10.00;8.90;;;;;;;10.83;100.00;101027.44;4968998;28;20011;-69
2023/08/29 04:41:49;;;;;;;9.82;8.82;;;;;;;10.86;100.00;101032.72;4973120;28;20022;-69
2023/08/29 04:44:15;;;;;;;12.70;8.90;;;;;;;10.86;100.00;101027.53;4957948;28;20469;-68
2023/08/29 04:46:40;;;;;;;10.27;9.38;;;;;;;10.85;100.00;101023.19;4968308;28;20023;-69
2023/08/29 04:49:06;;;;;;;10.05;9.15;;;;;;;10.86;100.00;101023.25;4968178;28;20383;-66
2023/08/29 04:51:34;;;;;;;12.40;9.52;;;;;;;10.85;100.00;101026.66;4967586;28;20399;-68
2023/08/29 04:53:59;;;;;;;9.85;8.95;;;;;;;10.87;100.00;101034.47;4982256;28;20097;-68
2023/08/29 04:56:25;;;;;;;10.52;9.43;;;;;;;10.87;100.00;101025.00;4980162;28;20019;-69
2023/08/29 04:58:50;;;;;;;10.45;9.50;;;;;;;10.86;100.00;101032.72;4987722;28;20014;-68
2023/08/29 05:01:15;;;;;;;10.93;9.73;;;;;;;10.85;100.00;101038.75;4984171;28;20422;-69
2023/08/29 05:03:41;;;;;;;10.02;9.15;;;;;;;10.85;100.00;101028.38;4984522;28;20026;-69
2023/08/29 05:06:06;;;;;;;10.38;9.38;;;;;;;10.84;100.00;101037.84;4979703;28;20062;-69
2023/08/29 05:08:34;;;;;;;10.93;9.07;;;;;;;10.85;100.00;101033.56;4983543;28;20014;-69
2023/08/29 05:11:00;;;;;;;11.55;9.18;;;;;;;10.85;100.00;101030.97;4979547;28;20062;-69
2023/08/29 05:13:25;;;;;;;10.50;9.52;;;;;;;10.86;100.00;101033.63;4981474;28;20113;-69
2023/08/29 05:15:51;;;;;;;11.25;10.00;;;;;;;10.89;100.00;101033.72;4983941;28;20381;-69
2023/08/29 05:18:16;;;;;;;10.93;9.65;;;;;;;10.90;100.00;101032.00;4985780;28;20026;-69
2023/08/29 05:20:42;;;;;;;10.40;9.40;;;;;;;10.91;100.00;101037.25;4979851;28;20295;-68
2023/08/29 05:23:08;;;;;;;11.10;10.00;;;;;;;10.93;100.00;101020.03;4982150;28;20120;-69
2023/08/29 05:25:33;;;;;;;10.43;9.40;;;;;;;10.95;100.00;101017.47;4981512;28;20047;-68
2023/08/29 05:27:58;;;;;;;10.48;9.05;;;;;;;10.99;100.00;101021.91;4985433;28;20038;-68
2023/08/29 05:30:24;;;;;;;10.68;9.48;;;;;;;11.02;100.00;101028.94;4983058;28;20034;-68
2023/08/29 05:32:49;;;;;;;13.00;10.20;;;;;;;11.03;100.00;101030.69;4980381;28;20106;-69
2023/08/29 05:35:14;;;;;;;11.63;10.63;;;;;;;11.07;100.00;101036.84;4985413;28;20156;-69
2023/08/29 05:37:40;;;;;;;10.95;9.82;;;;;;;11.10;100.00;101036.97;4980646;28;20030;-66
2023/08/29 05:40:06;;;;;;;12.25;11.00;;;;;;;11.14;100.00;101038.81;4979276;28;20031;-68
2023/08/29 05:42:31;;;;;;;12.45;10.75;;;;;;;11.17;100.00;101038.94;4988920;28;20082;-68
2023/08/29 05:44:57;;;;;;;11.68;10.57;;;;;;;11.21;100.00;101040.78;4985021;28;20471;-69
2023/08/29 05:47:22;;;;;;;12.30;11.00;;;;;;;11.25;100.00;101039.16;4988474;28;20050;-68
2023/08/29 05:49:47;;;;;;;12.13;10.88;;;;;;;11.29;100.00;101039.34;4984656;28;20027;-68
2023/08/29 05:52:12;;;;;;;17.40;11.95;;;;;;;11.33;100.00;101035.13;4987051;28;20037;-67
2023/08/29 05:54:38;;;;;;;13.32;11.68;;;;;;;11.38;100.00;101037.88;4983321;28;20042;-65
2023/08/29 05:57:03;;;;;;;12.75;11.45;;;;;;;11.44;100.00;101037.19;4987238;28;20033;-67
2023/08/29 05:59:29;;;;;;;13.27;11.63;;;;;;;11.46;100.00;101033.78;4987044;28;20053;-66
2023/08/29 06:01:54;;;;;;;14.10;12.68;;;;;;;11.51;100.00;101047.78;4986888;28;20026;-67
2023/08/29 06:04:20;;;;;;;13.95;12.00;;;;;;;11.56;100.00;101039.28;4983953;28;20050;-67
2023/08/29 06:06:48;;;;;;;13.25;11.93;;;;;;;11.62;100.00;101047.25;4988670;28;20078;-67
2023/08/29 06:09:13;;;;;;;12.80;11.50;;;;;;;11.71;100.00;101051.84;4986153;28;20176;-68
2023/08/29 06:11:39;;;;;;;13.35;12.13;;;;;;;11.77;100.00;101052.91;4988569;28;20085;-67
2023/08/29 06:14:05;;;;;;;16.33;14.75;;;;;;;11.86;100.00;101051.41;4985981;28;20034;-66
2023/08/29 06:16:30;;;;;;;16.67;15.07;;;;;;;11.90;100.00;101045.50;4984291;28;20105;-67
2023/08/29 06:18:55;;;;;;;16.92;15.25;;;;;;;11.95;100.00;101053.41;4985230;28;20110;-65
2023/08/29 06:21:20;;;;;;;17.63;15.93;;;;;;;12.00;100.00;101052.72;4987728;28;20126;-67
2023/08/29 06:23:46;;;;;;;19.63;17.73;;;;;;;12.06;100.00;101049.44;4984657;28;20478;-67
2023/08/29 06:26:11;;;;;;;17.98;16.02;;;;;;;12.11;100.00;101047.88;4986881;28;20185;-67
2023/08/29 06:28:37;;;;;;;19.02;17.05;;;;;;;12.16;100.00;101041.94;4985421;28;20140;-67
2023/08/29 06:31:07;;;;;;;16.90;15.27;;;;;;;12.23;100.00;101051.66;4987723;28;20101;-67
2023/08/29 06:33:33;;;;;;;18.55;16.73;;;;;;;12.30;100.00;101047.53;4986945;28;20034;-67
2023/08/29 06:35:58;;;;;;;17.85;16.15;;;;;;;12.39;100.00;101047.78;4980119;28;20030;-67
2023/08/29 06:38:23;;;;;;;19.88;17.88;;;;;;;12.48;100.00;101045.41;4989808;28;20101;-67
2023/08/29 06:40:58;;;;;;;17.60;15.75;;;;;;;12.58;100.00;101038.75;4999243;28;20058;-66
2023/08/29 06:43:24;;;;;;;18.42;16.70;;;;;;;12.67;100.00;101045.03;4990607;28;20371;-67
2023/08/29 06:45:50;;;;;;;17.65;16.00;;;;;;;12.78;100.00;101041.00;4990220;28;20030;-66
2023/08/29 06:48:15;;;;;;;18.40;16.63;;;;;;;12.87;100.00;101042.97;4988470;28;20445;-65
2023/08/29 06:50:40;;;;;;;17.77;16.17;;;;;;;12.93;100.00;101037.91;4989724;28;20622;-65
2023/08/29 06:53:06;;;;;;;19.27;17.38;;;;;;;13.01;100.00;101042.44;4988946;28;20129;-68
2023/08/29 06:55:32;;;;;;;18.55;16.75;;;;;;;13.08;100.00;101039.13;4990082;28;20034;-68
2023/08/29 06:57:58;;;;;;;18.90;17.05;;;;;;;13.14;100.00;101044.50;4989875;28;20033;-67
2023/08/29 07:00:23;;;;;;;17.85;16.25;;;;;;;13.22;100.00;101044.72;4978215;28;20042;-67
2023/08/29 07:02:50;;;;;;;18.80;16.92;;;;;;;13.31;100.00;101034.50;4970345;28;20113;-67
2023/08/29 07:05:15;;;;;;;18.45;16.52;;;;;;;13.43;100.00;101036.53;4970919;28;20475;-66
2023/08/29 07:07:41;;;;;;;16.02;14.52;;;;;;;13.53;100.00;101029.81;4970503;28;20037;-67
2023/08/29 07:10:06;;;;;;;15.27;13.60;;;;;;;13.57;100.00;101035.97;4964567;28;20044;-67
2023/08/29 07:12:32;;;;;;;15.10;13.80;;;;;;;13.66;100.00;101038.81;4971488;28;20422;-68
2023/08/29 07:14:58;;;;;;;14.75;13.30;;;;;;;13.72;100.00;101040.66;4970630;28;20030;-68
2023/08/29 07:17:24;;;;;;;14.65;13.18;;;;;;;13.83;100.00;101043.50;4970091;28;20030;-68
2023/08/29 07:19:49;;;;;;;14.48;13.18;;;;;;;13.96;100.00;101043.78;4982080;28;20022;-67
2023/08/29 07:22:14;;;;;;;13.77;12.48;;;;;;;14.07;100.00;101051.81;4970935;28;20075;-67
2023/08/29 07:24:39;;;;;;;13.07;11.88;;;;;;;14.16;100.00;101055.47;4969848;28;20433;-68
2023/08/29 07:27:06;;;;;;;13.35;12.05;;;;;;;14.25;100.00;101059.13;4983628;28;20106;-68
2023/08/29 07:29:31;;;;;;;15.48;13.93;;;;;;;14.37;100.00;101059.34;4970644;28;20093;-68
2023/08/29 07:31:56;;;;;;;13.98;12.68;;;;;;;14.50;100.00;101054.38;4984977;28;20026;-65
2023/08/29 07:34:22;;;;;;;15.77;14.27;;;;;;;14.58;100.00;101059.75;4979649;28;20027;-68
2023/08/29 07:36:47;;;;;;;16.75;14.98;;;;;;;14.61;100.00;101045.03;4972702;28;20057;-68
2023/08/29 07:39:14;;;;;;;17.10;15.52;;;;;;;14.76;100.00;101051.38;4990041;28;20038;-68
2023/08/29 07:41:40;;;;;;;15.20;13.80;;;;;;;14.92;100.00;101057.78;4985769;28;20478;-68
2023/08/29 07:44:05;;;;;;;14.52;13.13;;;;;;;15.12;100.00;101058.16;4970357;28;20040;-68
2023/08/29 07:46:30;;;;;;;14.23;12.70;;;;;;;15.32;100.00;101068.03;4970065;28;20375;-68
2023/08/29 07:48:55;;;;;;;13.23;12.02;;;;;;;15.57;100.00;101065.78;4980119;28;20030;-67
2023/08/29 07:51:21;;;;;;;13.05;11.85;;;;;;;15.77;100.00;101059.97;4973356;28;20027;-65
2023/08/29 07:53:46;;;;;;;11.50;10.27;;;;;;;15.94;100.00;101057.59;4979700;28;20478;-67
2023/08/29 07:56:11;;;;;;;10.00;9.02;;;;;;;16.02;100.00;101065.56;4975814;28;20026;-67
2023/08/29 07:58:36;;;;;;;8.27;7.55;;;;;;;16.11;100.00;101064.81;4988491;28;20022;-68
2023/08/29 08:01:02;;;;;;;8.70;7.80;;;;;;;16.21;100.00;101063.16;4985030;28;20422;-68
2023/08/29 08:03:28;;;;;;;8.00;7.30;;;;;;;16.29;100.00;101058.91;4969554;28;20029;-68
2023/08/29 08:05:55;;;;;;;7.93;7.13;;;;;;;16.33;100.00;101060.69;4969491;28;20046;-69
2023/08/29 08:08:20;;;;;;;7.05;6.35;;;;;;;16.39;100.00;101053.78;4969346;28;20078;-68
2023/08/29 08:10:45;;;;;;;7.32;6.60;;;;;;;16.40;100.00;101052.94;4972816;28;20414;-68
2023/08/29 08:13:11;;;;;;;8.73;7.80;;;;;;;16.47;100.00;101056.47;4988777;28;20050;-68
2023/08/29 08:15:36;;;;;;;8.07;7.38;;;;;;;16.43;100.00;101068.66;4987624;28;20026;-68
2023/08/29 08:18:01;;;;;;;7.47;6.80;;;;;;;16.25;100.00;101062.34;4988546;28;20109;-68
2023/08/29 08:20:26;;;;;;;7.35;6.68;;;;;;;16.19;100.00;101067.53;4987598;28;20385;-68
2023/08/29 08:22:52;;;;;;;7.20;6.55;;;;;;;16.13;100.00;101060.47;4987959;28;20423;-68
2023/08/29 08:25:17;;;;;;;7.95;6.78;;;;;;;16.20;100.00;101061.41;4987823;28;20047;-68
2023/08/29 08:27:43;;;;;;;7.32;6.72;;;;;;;16.27;100.00;101062.38;4987236;28;20045;-67
2023/08/29 08:30:09;;;;;;;6.90;6.30;;;;;;;16.35;100.00;101067.69;4987095;28;20026;-68
2023/08/29 08:32:34;;;;;;;6.40;5.80;;;;;;;16.44;100.00;101065.19;4981135;28;20023;-68
2023/08/29 08:35:00;;;;;;;7.10;5.85;;;;;;;16.56;100.00;101067.06;4968784;28;20488;-69
2023/08/29 08:37:25;;;;;;;7.40;6.70;;;;;;;16.51;100.00;101063.50;4969239;28;20019;-68
2023/08/29 08:39:50;;;;;;;7.30;6.60;;;;;;;16.61;100.00;101064.47;4969174;28;20026;-68
2023/08/29 08:42:16;;;;;;;7.28;6.57;;;;;;;16.59;100.00;101068.81;4968477;28;20035;-69
2023/08/29 08:44:42;;;;;;;6.65;6.00;;;;;;;16.74;100.00;101071.59;4981908;28;20014;-68
2023/08/29 08:47:08;;;;;;;7.00;6.20;;;;;;;16.96;100.00;101061.34;4977674;28;20030;-68
2023/08/29 08:49:34;;;;;;;6.57;5.93;;;;;;;17.16;100.00;101063.28;4974374;28;20430;-68
2023/08/29 08:51:59;;;;;;;6.97;5.45;;;;;;;17.20;100.00;101059.81;4972959;28;20023;-69
2023/08/29 08:54:25;;;;;;;5.22;4.78;;;;;;;17.37;100.00;101066.94;4972050;28;20034;-67
2023/08/29 08:56:51;;;;;;;6.13;5.40;;;;;;;17.55;100.00;101060.94;4972845;28;20026;-68
2023/08/29 08:59:17;;;;;;;5.88;5.38;;;;;;;17.74;100.00;101061.91;4973394;28;20488;-68
2023/08/29 09:01:42;;;;;;;5.30;4.80;;;;;;;17.75;100.00;101068.06;4973033;28;20083;-67
2023/08/29 09:04:09;;;;;;;5.88;4.75;;;;;;;17.94;100.00;101057.66;4973067;28;20061;-68
2023/08/29 09:06:34;;;;;;;6.03;4.47;;;;;;;18.11;100.00;101058.59;4972675;28;20026;-67
2023/08/29 09:09:19;;;;;;;4.28;3.85;;;;;;;18.28;100.00;101059.56;4972410;28;20034;-66
2023/08/29 09:11:55;;;;;;;3.90;3.55;;;;;;;18.45;100.00;101055.25;4972944;28;20031;-67
2023/08/29 09:14:22;;;;;;;4.28;3.95;;;;;;;18.49;100.00;101056.16;4978716;28;20367;-68
2023/08/29 09:16:52;;;;;;;4.90;3.75;;;;;;;18.36;100.00;101065.72;4991442;28;20030;-67
2023/08/29 09:19:20;;;;;;;3.70;3.40;;;;;;;18.36;100.00;101065.72;4978885;28;20045;-69
2023/08/29 09:21:45;;;;;;;4.53;4.13;;;;;;;18.13;100.00;101062.09;4991131;28;20479;-69
2023/08/29 09:24:12;;;;;;;6.25;4.40;;;;;;;17.99;100.00;101066.41;4991794;28;20037;-69
2023/08/29 09:26:39;;;;;;;4.95;4.40;;;;;;;17.83;100.00;101071.56;4976842;28;20436;-69
2023/08/29 09:29:19;;;;;;;5.47;4.35;;;;;;;17.77;100.00;101067.16;4979991;28;20110;-69
2023/08/29 09:31:48;;;;;;;4.35;3.95;;;;;;;17.80;100.00;101065.44;4989564;28;20026;-70
2023/08/29 09:34:29;;;;;;;4.75;4.28;;;;;;;17.79;100.00;101068.94;4972559;28;20438;-68
2023/08/29 09:36:55;;;;;;;3.97;3.17;;;;;;;17.74;100.00;101075.03;4989637;28;20077;-68
2023/08/29 09:39:21;;;;;;;4.70;4.20;;;;;;;17.75;100.00;101076.75;4980506;28;20048;-69
2023/08/29 09:42:04;;;;;;;4.30;3.90;;;;;;;17.68;100.00;101072.38;4972167;28;20023;-69
2023/08/29 09:44:35;;;;;;;5.95;4.18;;;;;;;17.70;100.00;101065.38;4971552;28;20031;-69
2023/08/29 09:47:00;;;;;;;4.32;3.65;;;;;;;17.70;100.00;101065.38;4972031;28;20054;-69
2023/08/29 09:49:50;;;;;;;4.25;3.83;;;;;;;17.71;100.00;101058.41;4972482;28;20050;-69
2023/08/29 09:52:16;;;;;;;4.28;3.88;;;;;;;17.73;100.00;101054.94;4971138;28;20055;-69
2023/08/29 09:54:48;;;;;;;4.00;3.65;;;;;;;17.77;100.00;101055.84;4972325;28;20447;-69
2023/08/29 09:57:18;;;;;;;4.18;3.60;;;;;;;17.77;100.00;101054.06;4972438;28;20054;-69
2023/08/29 09:59:43;;;;;;;4.45;3.33;;;;;;;17.79;100.00;101050.59;4971962;28;20484;-68
2023/08/29 10:02:11;;;;;;;3.90;3.28;;;;;;;17.81;100.00;101051.50;4972293;28;20486;-69
2023/08/29 10:04:52;;;;;;;4.63;3.00;;;;;;;17.74;100.00;101050.56;4971919;28;20027;-69
2023/08/29 10:07:25;;;;;;;3.20;2.90;;;;;;;17.69;100.00;101052.28;4971861;28;20449;-69
2023/08/29 10:09:51;;;;;;;3.33;2.47;;;;;;;17.70;100.00;101049.66;4971899;28;20058;-69
2023/08/29 10:12:18;;;;;;;3.58;2.70;;;;;;;17.59;100.00;101048.75;4974879;28;20508;-68
2023/08/29 10:14:44;;;;;;;3.22;2.35;;;;;;;17.66;100.00;101044.41;4973491;28;20026;-69
2023/08/29 10:17:10;;;;;;;3.70;2.40;;;;;;;17.70;100.00;101054.91;4990005;28;20026;-69
2023/08/29 10:19:36;;;;;;;2.63;2.35;;;;;;;17.72;100.00;101047.94;4990033;28;20030;-69
2023/08/29 10:22:04;;;;;;;2.50;2.30;;;;;;;17.77;100.00;101046.22;4990209;28;20022;-67
2023/08/29 10:24:31;;;;;;;2.92;2.15;;;;;;;17.84;100.00;101046.25;4990622;28;20140;-69
2023/08/29 10:26:57;;;;;;;2.20;2.00;;;;;;;17.91;100.00;101048.03;4990339;28;20034;-68
2023/08/29 10:29:23;;;;;;;2.67;1.80;;;;;;;17.93;100.00;101041.06;5000735;28;20018;-69
2023/08/29 10:31:48;;;;;;;1.60;1.50;;;;;;;18.00;100.00;101045.47;4977980;28;20042;-69
2023/08/29 10:34:14;;;;;;;3.45;2.10;;;;;;;18.05;100.00;101044.59;4971706;28;20113;-69
2023/08/29 10:36:39;;;;;;;3.13;2.83;;;;;;;18.09;100.00;101035.88;4986848;28;20026;-69
2023/08/29 10:39:09;;;;;;;2.63;2.20;;;;;;;18.11;100.00;101039.38;4990783;28;20521;-69
2023/08/29 10:41:47;;;;;;;3.28;2.15;;;;;;;18.15;100.00;101041.16;4990492;28;20022;-68
2023/08/29 10:44:43;;;;;;;4.85;2.05;;;;;;;18.03;100.00;101038.44;4991378;28;20030;-69
2023/08/29 10:47:28;;;;;;;1.65;1.55;;;;;;;17.97;100.00;101032.31;4975352;28;20046;-69
2023/08/29 10:50:02;;;;;;;3.95;2.15;;;;;;;18.05;100.00;101034.97;4990127;28;20371;-69
2023/08/29 10:52:39;;;;;;;3.08;1.65;;;;;;;18.11;100.00;101027.13;4989471;28;20176;-68
2023/08/29 10:55:18;;;;;;;1.90;1.52;;;;;;;18.18;100.00;101032.44;4978131;28;20030;-69
2023/08/29 10:57:43;;;;;;;3.30;2.00;;;;;;;18.21;100.00;101028.09;4975418;28;20032;-69
2023/08/29 11:00:32;;;;;;;3.95;1.80;;;;;;;18.27;100.00;101024.59;4971246;28;20023;-68
2023/08/29 11:02:58;;;;;;;1.60;1.10;;;;;;;18.30;100.00;101018.47;4971523;28;20037;-69
2023/08/29 11:05:23;;;;;;;2.63;1.63;;;;;;;18.35;100.00;101008.88;4971513;28;20022;-67
2023/08/29 11:07:49;;;;;;;2.20;1.20;;;;;;;18.32;100.00;101011.50;4971766;28;20538;-69
2023/08/29 11:10:17;;;;;;;3.47;1.70;;;;;;;18.35;100.00;101001.88;4972090;28;20030;-69